Terminal Aerodrome Forecast
Issued by NWS

Home | Current Version | Previous Version | Text Only | Print | Product List | Glossary On
Versions: 1 2 3 4 5 6 7 8 9 10 11 12 13 14 15 16 17 18
000
FTUS43 KMQT 292300
TAFCMX
TAF
KCMX 292321Z 3000/3024 31009KT P6SM SKC
     FM300500 28004KT 3SM BR SCT003
     FM301300 28005KT P6SM SCT120
     FM301500 29012KT P6SM VCSH BKN060=

USA.gov is the U.S. government's official web portal to all federal, state and local government web resources and services.